Aviation Digital Data Service (ADDS)

Output produced by METARs form (2227 UTC 30 August 2016)
found at http://aviationweather.gov/adds/metars/
 
KLAS 302046Z 3021/3118 07005KT P6SM FEW130 
     FM310000 12007KT P6SM FEW120 
     FM310400 20008KT P6SM SKC 
     FM311500 VRB04KT P6SM SKC